Time;durP1;ratioP1;P1;durP2;ratioP2;P2;SDS_P1;SDS_P2;PMS_P1;PMS_P2;Temp;Humidity;BMP_temperature;BMP_pressure;BME280_temperature;BME280_humidity;BME280_pressure;Samples;Min_cycle;Max_cycle;Signal;HPM_P1;HPM_P2
2022/06/29 00:02:21;;;;;;;;;;;;;;;16.62;100.00;95577.03;10477339;28;1850;-74
2022/06/29 00:07:25;;;;;;;;;;;;;;;16.81;100.00;95563.22;10481532;28;1971;-74
2022/06/29 00:12:29;;;;;;;;;;;;;;;16.93;100.00;95555.25;10474065;28;1852;-73
2022/06/29 00:17:33;;;;;;;;;;;;;;;16.99;100.00;95552.03;10482431;28;1814;-74
2022/06/29 00:22:36;;;;;;;;;;;;;;;17.03;100.00;95544.84;10477221;28;1896;-74
2022/06/29 00:27:40;;;;;;;;;;;;;;;17.03;100.00;95525.84;10493111;28;1914;-74
2022/06/29 00:32:43;;;;;;;;;;;;;;;16.98;100.00;95517.84;10473342;28;2034;-73
2022/06/29 00:37:47;;;;;;;;;;;;;;;16.85;100.00;95507.16;10494718;28;2343;-73
2022/06/29 00:42:51;;;;;;;;;;;;;;;16.83;100.00;95506.69;10486484;28;1761;-74
2022/06/29 00:47:55;;;;;;;;;;;;;;;16.89;100.00;95513.53;10479435;28;2032;-74
2022/06/29 00:52:59;;;;;;;;;;;;;;;16.95;100.00;95504.91;10485508;28;1891;-73
2022/06/29 00:58:05;;;;;;;;;;;;;;;17.00;100.00;95499.34;10473424;28;1870;-73
2022/06/29 01:03:08;;;;;;;;;;;;;;;17.02;100.00;95496.28;10473392;28;1898;-72
2022/06/29 01:08:12;;;;;;;;;;;;;;;17.14;100.00;95493.72;10466569;28;1922;-73
2022/06/29 01:13:16;;;;;;;;;;;;;;;17.14;100.00;95482.84;10475818;28;2323;-73
2022/06/29 01:18:21;;;;;;;;;;;;;;;17.25;100.00;95515.91;10474432;28;1951;-73
2022/06/29 01:23:26;;;;;;;;;;;;;;;17.28;100.00;95526.94;10478364;28;1971;-73
2022/06/29 01:28:31;;;;;;;;;;;;;;;17.28;100.00;95529.63;10472371;28;2248;-73
2022/06/29 01:33:41;;;;;;;;;;;;;;;17.32;100.00;95508.06;10471177;28;1991;-74
2022/06/29 01:38:56;;;;;;;;;;;;;;;17.39;100.00;95485.84;10471869;28;1947;-73
2022/06/29 01:44:00;;;;;;;;;;;;;;;17.34;100.00;95477.88;10472163;28;1892;-73
2022/06/29 01:49:05;;;;;;;;;;;;;;;17.36;100.00;95464.75;10469140;28;1959;-73
2022/06/29 01:54:08;;;;;;;;;;;;;;;17.34;100.00;95458.84;10469842;28;1998;-73
2022/06/29 01:59:12;;;;;;;;;;;;;;;17.29;100.00;95443.50;10469101;28;1970;-73
2022/06/29 02:04:15;;;;;;;;;;;;;;;17.33;100.00;95430.09;10473703;28;1978;-73
2022/06/29 02:09:19;;;;;;;;;;;;;;;17.24;100.00;95413.81;10473803;28;2006;-72
2022/06/29 02:14:22;;;;;;;;;;;;;;;17.15;100.00;95451.84;10475346;28;2034;-72
2022/06/29 02:19:26;;;;;;;;;;;;;;;17.16;100.00;95453.44;10469352;28;1923;-73
2022/06/29 02:24:29;;;;;;;;;;;;;;;17.23;100.00;95532.53;10464992;28;2057;-72
2022/06/29 02:29:33;;;;;;;;;;;;;;;17.25;100.00;95481.41;10473823;28;2052;-72
2022/06/29 02:34:46;;;;;;;;;;;;;;;17.28;100.00;95491.59;10473979;28;1888;-72
2022/06/29 02:39:49;;;;;;;;;;;;;;;17.26;100.00;95491.16;10483939;28;1949;-73
2022/06/29 02:44:54;;;;;;;;;;;;;;;17.18;100.00;95477.59;10470447;28;1954;-72
2022/06/29 02:49:57;;;;;;;;;;;;;;;17.18;100.00;95472.97;10469347;28;1966;-73
2022/06/29 02:55:01;;;;;;;;;;;;;;;17.09;100.00;95436.06;10476259;28;1970;-73
2022/06/29 03:00:08;;;;;;;;;;;;;;;16.96;100.00;95452.22;10466489;28;2046;-72
2022/06/29 03:05:12;;;;;;;;;;;;;;;16.75;100.00;95452.06;10470466;28;1919;-72
2022/06/29 03:10:17;;;;;;;;;;;;;;;16.64;100.00;95463.53;10466140;28;1974;-72
2022/06/29 03:15:20;;;;;;;;;;;;;;;16.59;100.00;95459.06;10469119;28;2015;-73
2022/06/29 03:20:25;;;;;;;;;;;;;;;16.60;100.00;95466.09;10455777;28;1954;-73
2022/06/29 03:25:29;;;;;;;;;;;;;;;16.73;100.00;95489.59;10468886;28;1985;-73
2022/06/29 03:30:32;;;;;;;;;;;;;;;16.91;100.00;95470.56;10470646;28;1939;-73
2022/06/29 03:35:36;;;;;;;;;;;;;;;16.98;100.00;95460.81;10464669;28;1954;-73
2022/06/29 03:40:39;;;;;;;;;;;;;;;17.05;100.00;95471.22;10470564;28;2074;-73
2022/06/29 03:45:43;;;;;;;;;;;;;;;17.14;100.00;95490.22;10471171;28;1977;-72
2022/06/29 03:50:46;;;;;;;;;;;;;;;17.19;100.00;95481.91;10469680;28;1966;-72
2022/06/29 03:55:50;;;;;;;;;;;;;;;17.23;100.00;95486.34;10476740;28;1942;-73
2022/06/29 04:00:55;;;;;;;;;;;;;;;17.29;100.00;95487.78;10484684;28;1935;-73
2022/06/29 04:05:59;;;;;;;;;;;;;;;17.36;100.00;95489.19;10473119;28;1938;-73
2022/06/29 04:11:02;;;;;;;;;;;;;;;17.42;100.00;95496.06;10464746;28;1954;-73
2022/06/29 04:16:12;;;;;;;;;;;;;;;17.51;100.00;95481.34;10454113;28;2360;-74
2022/06/29 04:21:16;;;;;;;;;;;;;;;17.48;100.00;95486.59;10475174;28;1974;-74
2022/06/29 04:26:19;;;;;;;;;;;;;;;17.57;100.00;95484.69;10473086;28;1989;-74
2022/06/29 04:31:23;;;;;;;;;;;;;;;17.68;100.00;95477.75;10473894;28;1848;-73
2022/06/29 04:36:26;;;;;;;;;;;;;;;17.87;100.00;95473.84;10470745;28;1863;-73
2022/06/29 04:41:29;;;;;;;;;;;;;;;17.92;100.00;95501.66;10479158;28;1840;-73
2022/06/29 04:46:34;;;;;;;;;;;;;;;18.04;100.00;95495.53;10476429;28;1909;-74
2022/06/29 04:51:38;;;;;;;;;;;;;;;18.06;100.00;95487.84;10474649;28;1845;-74
2022/06/29 04:56:41;;;;;;;;;;;;;;;18.01;100.00;95483.41;10481428;28;1867;-73
2022/06/29 05:01:47;;;;;;;;;;;;;;;18.31;100.00;95467.84;10481471;28;1753;-73
2022/06/29 05:06:51;;;;;;;;;;;;;;;18.30;100.00;95460.81;10477040;28;1954;-72
2022/06/29 05:11:55;;;;;;;;;;;;;;;18.34;100.00;95471.84;10476158;28;1847;-71
2022/06/29 05:16:58;;;;;;;;;;;;;;;18.46;100.00;95476.59;10472935;28;1954;-72
2022/06/29 05:22:01;;;;;;;;;;;;;;;18.66;100.00;95478.50;10473620;28;1861;-72
2022/06/29 05:27:05;;;;;;;;;;;;;;;18.85;100.00;95459.81;10471519;28;1902;-75
2022/06/29 05:32:09;;;;;;;;;;;;;;;19.27;100.00;95458.91;10461658;28;1950;-75
2022/06/29 05:37:13;;;;;;;;;;;;;;;19.54;100.00;95457.53;10467092;28;1941;-74
2022/06/29 05:42:16;;;;;;;;;;;;;;;19.86;100.00;95440.31;10467741;28;2082;-75
2022/06/29 05:47:20;;;;;;;;;;;;;;;20.04;100.00;95440.06;10469387;28;2604;-74
2022/06/29 05:52:23;;;;;;;;;;;;;;;19.81;100.00;95431.56;10465387;28;1855;-75
2022/06/29 05:57:27;;;;;;;;;;;;;;;19.58;100.00;95425.75;10468573;28;1897;-73
2022/06/29 06:02:30;;;;;;;;;;;;;;;19.85;100.00;95422.38;10474179;28;1771;-74
2022/06/29 06:07:34;;;;;;;;;;;;;;;20.04;100.00;95429.16;10476237;28;1910;-74
2022/06/29 06:12:37;;;;;;;;;;;;;;;19.92;100.00;95441.69;10473900;28;1829;-75
2022/06/29 06:17:41;;;;;;;;;;;;;;;20.22;100.00;95442.22;10465629;28;2164;-73
2022/06/29 06:22:44;;;;;;;;;;;;;;;20.67;100.00;95443.97;10473598;28;2189;-73
2022/06/29 06:27:48;;;;;;;;;;;;;;;20.48;100.00;95447.31;10470288;28;2086;-74
2022/06/29 06:32:51;;;;;;;;;;;;;;;20.30;100.00;95448.69;10474010;28;1851;-74
2022/06/29 06:37:55;;;;;;;;;;;;;;;20.25;100.00;95465.31;10471076;28;1954;-74
2022/06/29 06:42:58;;;;;;;;;;;;;;;20.31;100.00;95474.84;10467021;28;1928;-73
2022/06/29 06:48:01;;;;;;;;;;;;;;;20.28;100.00;95486.44;10469453;28;2073;-74
2022/06/29 06:53:05;;;;;;;;;;;;;;;20.18;100.00;95486.91;10476244;28;1812;-75
2022/06/29 06:58:08;;;;;;;;;;;;;;;19.96;100.00;95504.53;10461734;28;1982;-75
2022/06/29 07:03:11;;;;;;;;;;;;;;;19.93;100.00;95500.56;10473422;28;1715;-75
2022/06/29 07:08:15;;;;;;;;;;;;;;;20.10;100.00;95512.38;10471100;28;1910;-75
2022/06/29 07:13:18;;;;;;;;;;;;;;;20.01;100.00;95523.41;10466620;28;1792;-74
2022/06/29 07:18:21;;;;;;;;;;;;;;;20.16;100.00;95521.91;10474946;28;1813;-74
2022/06/29 07:23:24;;;;;;;;;;;;;;;19.90;100.00;95525.75;10473612;28;1859;-73
2022/06/29 07:28:28;;;;;;;;;;;;;;;20.58;100.00;95527.97;10467077;28;2323;-74
2022/06/29 07:33:31;;;;;;;;;;;;;;;21.37;94.40;95520.13;10472049;28;1770;-74
2022/06/29 07:38:35;;;;;;;;;;;;;;;21.47;93.79;95514.19;10472020;28;1964;-74
2022/06/29 07:43:38;;;;;;;;;;;;;;;21.11;93.30;95506.09;10466012;28;1878;-74
2022/06/29 07:48:45;;;;;;;;;;;;;;;21.28;93.45;95506.63;10461414;28;1910;-74
2022/06/29 07:53:48;;;;;;;;;;;;;;;21.26;93.45;95514.38;10469115;28;1857;-74
2022/06/29 07:58:51;;;;;;;;;;;;;;;20.90;95.81;95495.34;10474383;28;1843;-74
2022/06/29 08:03:55;;;;;;;;;;;;;;;20.79;96.44;95476.72;10480907;28;1869;-74
2022/06/29 08:09:00;;;;;;;;;;;;;;;20.49;98.38;95473.50;10493857;28;1947;-74
2022/06/29 08:14:03;;;;;;;;;;;;;;;20.45;100.00;95453.47;10472601;28;1897;-74
2022/06/29 08:19:06;;;;;;;;;;;;;;;20.81;98.19;95454.53;10478743;28;1816;-74
2022/06/29 08:24:09;;;;;;;;;;;;;;;21.00;97.26;95484.75;10471218;28;1841;-74
2022/06/29 08:29:14;;;;;;;;;;;;;;;20.92;96.01;95499.31;10473792;28;1917;-74
2022/06/29 08:34:18;;;;;;;;;;;;;;;21.38;94.99;95502.63;10480230;28;1891;-75
2022/06/29 08:39:21;;;;;;;;;;;;;;;21.38;92.92;95493.63;10478926;28;2009;-73
2022/06/29 08:44:25;;;;;;;;;;;;;;;22.30;86.11;95489.72;10480081;28;1809;-73
2022/06/29 08:49:28;;;;;;;;;;;;;;;22.28;85.91;95494.75;10476495;28;1966;-74
2022/06/29 08:54:32;;;;;;;;;;;;;;;22.48;85.10;95484.66;10477845;28;1789;-74
2022/06/29 08:59:36;;;;;;;;;;;;;;;22.52;84.40;95491.81;10478529;28;1747;-73
2022/06/29 09:04:59;;;;;;;;;;;23.00;99.90;;;23.47;79.82;95477.72;10477225;28;1763;-74
2022/06/29 09:10:02;;;;;;;;;;;23.30;99.90;;;24.38;75.86;95476.97;10479877;28;1918;-73
2022/06/29 09:15:05;;;;;;;;;;;24.10;99.90;;;24.24;72.29;95480.28;10490412;28;1853;-75
2022/06/29 09:20:08;;;;;;;;;;;24.40;99.90;;;23.56;76.21;95485.72;10485047;28;2122;-74
2022/06/29 09:25:32;;;;;;;;;;;24.40;99.90;;;23.12;80.44;95475.88;10476108;28;1923;-74
2022/06/29 09:30:36;;;;;;;;;;;23.90;99.90;;;24.16;76.06;95467.56;10466261;28;1981;-75
2022/06/29 09:35:40;;;;;;;;;;;24.20;99.90;;;25.13;70.01;95475.28;10473591;28;1857;-73
2022/06/29 09:40:43;;;;;;;;;;;25.00;99.90;;;24.99;67.92;95475.06;10481727;28;1834;-74
2022/06/29 09:45:48;;;;;;;;;;;25.30;99.90;;;24.19;70.99;95477.03;10475416;28;1754;-74
2022/06/29 09:50:52;;;;;;;;;;;25.20;99.90;;;23.46;77.10;95478.88;10474837;28;1914;-73
2022/06/29 09:55:55;;;;;;;;;;;24.40;99.90;;;23.41;77.04;95477.25;10487159;28;1862;-74
2022/06/29 10:06:19;;;;;;;;;;;24.30;99.90;;;23.33;77.20;95474.72;10477178;28;1911;-74
2022/06/29 10:16:45;;;;;;;;;;;24.00;99.90;;;21.63;88.09;95466.91;10474695;28;1801;-75
2022/06/29 10:21:49;;;;;;;;;;;23.30;99.90;;;21.48;90.45;95463.00;10470585;28;1904;-75
2022/06/29 10:26:53;;;;;;;;;;;22.60;99.90;;;21.75;90.19;95475.03;10476144;28;1925;-75
2022/06/29 10:31:57;;;;;;;;;;;22.40;99.90;;;22.58;86.13;95468.44;10476957;28;1718;-75
2022/06/29 10:37:01;;;;;;;;;;;22.80;99.90;;;24.54;74.38;95452.06;10469372;28;1818;-75
2022/06/29 10:47:25;;;;;;;;;;;25.00;99.90;;;25.22;69.20;95453.78;10480461;28;1930;-74
2022/06/29 10:52:28;;;;;;;;;;;25.40;99.90;;;25.28;68.66;95443.22;10469257;28;1831;-74
2022/06/29 10:57:31;;;;;;;;;;;25.80;99.90;;;24.66;70.24;95451.88;10467764;28;2018;-75
2022/06/29 11:02:34;;;;;;;;;;;25.40;99.90;;;24.42;69.93;95446.81;10477748;28;1815;-74
2022/06/29 11:12:59;;;;;;;;;;;24.80;99.90;;;23.94;71.58;95433.50;10473940;28;1757;-74
2022/06/29 11:18:03;;;;;;;;;;;24.90;99.90;;;25.36;67.14;95422.09;10470169;28;1800;-74
2022/06/29 11:23:05;;;;;;;;;;;25.50;99.90;;;25.33;66.95;95415.41;10463017;28;1902;-74
2022/06/29 11:28:09;;;;;;;;;;;;;;;26.45;59.98;95404.16;10485127;28;1988;-74
2022/06/29 11:33:13;;;;;;;;;;;;;;;26.70;58.74;95407.06;10494290;28;1815;-75
2022/06/29 11:38:16;;;;;;;;;;;27.20;99.90;;;26.24;59.61;95416.59;10497189;28;1831;-74
2022/06/29 11:43:20;;;;;;;;;;;27.10;99.90;;;25.52;61.65;95419.91;10475539;28;1842;-74
2022/06/29 11:48:23;;;;;;;;;;;26.40;99.90;;;25.83;61.59;95413.13;10479075;28;1918;-75
2022/06/29 11:53:26;;;;;;;;;;;26.10;99.90;;;26.48;60.86;95417.19;10477130;28;1846;-75
2022/06/29 11:58:29;;;;;;;;;;;26.50;99.90;;;26.78;56.26;95416.94;10466285;28;1887;-74
2022/06/29 12:03:32;;;;;;;;;;;27.00;99.90;;;26.65;56.23;95416.47;10480920;28;1925;-73
2022/06/29 12:08:36;;;;;;;;;;;27.10;99.90;;;26.07;57.49;95423.56;10473283;28;1973;-74
2022/06/29 12:13:39;;;;;;;;;;;26.70;99.90;;;26.19;57.34;95422.47;10471612;28;1908;-73
2022/06/29 12:18:43;;;;;;;;;;;26.60;99.90;;;26.13;58.75;95421.22;10475306;28;1809;-74
2022/06/29 12:23:46;;;;;;;;;;;26.60;99.90;;;25.94;59.55;95421.47;10468416;28;1841;-75
2022/06/29 12:28:50;;;;;;;;;;;26.50;99.90;;;25.21;62.15;95421.94;10480938;28;1979;-73
2022/06/29 12:33:53;;;;;;;;;;;26.10;99.90;;;25.21;61.64;95416.44;10472111;28;1884;-74
2022/06/29 12:39:16;;;;;;;;;;;25.70;99.90;;;25.67;59.50;95423.56;10474192;28;1887;-75
2022/06/29 12:44:19;;;;;;;;;;;25.90;99.90;;;26.39;56.85;95418.25;10472638;28;1876;-75
2022/06/29 12:49:23;;;;;;;;;;;26.50;99.90;;;26.82;54.66;95417.75;10476785;28;2019;-74
2022/06/29 12:54:26;;;;;;;;;;;27.00;99.90;;;27.18;52.14;95418.72;10481813;28;2087;-75
2022/06/29 12:59:31;;;;;;;;;;;27.50;99.90;;;27.60;52.29;95417.22;10465834;28;2216;-75
2022/06/29 13:04:35;;;;;;;;;;;;;;;27.27;52.02;95416.38;10473750;28;1958;-76
2022/06/29 13:09:38;;;;;;;;;;;;;;;27.04;52.17;95413.09;10474057;28;1988;-75
2022/06/29 13:14:42;;;;;;;;;;;;;;;27.41;50.25;95410.88;10472917;28;1851;-75
2022/06/29 13:19:46;;;;;;;;;;;;;;;27.16;51.60;95407.25;10473273;28;2030;-75
2022/06/29 13:24:49;;;;;;;;;;;;;;;27.02;52.31;95407.19;10491806;28;1816;-74
2022/06/29 13:29:53;;;;;;;;;;;;;;;26.69;51.99;95417.28;10482245;28;1972;-74
2022/06/29 13:34:56;;;;;;;;;;;;;;;26.63;52.89;95405.06;10470051;28;1914;-74
2022/06/29 13:40:00;;;;;;;;;;;;;;;26.56;53.86;95407.78;10477729;28;1887;-74
2022/06/29 13:45:04;;;;;;;;;;;;;;;27.60;52.09;95411.72;10469223;28;1721;-75
2022/06/29 13:50:07;;;;;;;;;;;;;;;27.18;49.75;95404.94;10476518;28;1975;-75
2022/06/29 13:55:18;;;;;;;;;;;;;;;26.56;52.76;95405.03;10474856;28;1868;-75
2022/06/29 14:00:22;;;;;;;;;;;;;;;26.80;53.15;95404.34;10477108;28;2014;-75
2022/06/29 14:05:27;;;;;;;;;;;;;;;27.02;52.48;95399.69;10477154;28;1737;-75
2022/06/29 14:10:31;;;;;;;;;;;;;;;26.27;53.78;95393.78;10484221;28;1980;-75
2022/06/29 14:15:35;;;;;;;;;;;;;;;26.88;52.69;95388.63;10465292;28;1795;-75
2022/06/29 14:20:39;;;;;;;;;;;;;;;26.52;51.36;95384.91;10479978;28;1985;-75
2022/06/29 14:25:42;;;;;;;;;;;;;;;26.44;52.91;95375.03;10463459;28;1793;-75
2022/06/29 14:30:46;;;;;;;;;;;;;;;26.34;53.05;95388.34;10483250;28;1898;-75
2022/06/29 14:35:49;;;;;;;;;;;;;;;26.93;52.30;95380.78;10470577;28;1796;-75
2022/06/29 14:40:53;;;;;;;;;;;;;;;26.54;53.35;95374.31;10477037;28;1859;-75
2022/06/29 14:45:57;;;;;;;;;;;;;;;26.92;52.11;95378.41;10468052;28;1849;-75
2022/06/29 14:51:00;;;;;;;;;;;;;;;27.43;50.55;95372.66;10486676;28;1913;-75
2022/06/29 14:56:05;;;;;;;;;;;;;;;27.54;49.46;95369.09;10476748;28;1860;-74
2022/06/29 15:01:09;;;;;;;;;;;;;;;28.07;48.54;95358.09;10469182;28;1933;-75
2022/06/29 15:06:14;;;;;;;;;;;;;;;28.39;46.93;95352.53;10469919;28;1919;-74
2022/06/29 15:11:18;;;;;;;;;;;;;;;28.96;44.96;95343.28;10461926;28;1948;-75
2022/06/29 15:16:21;;;;;;;;;;;;;;;29.01;43.93;95337.31;10463597;28;1841;-74
2022/06/29 15:21:24;;;;;;;;;;;;;;;27.77;46.68;95339.19;10470651;28;1857;-74
2022/06/29 15:26:37;;;;;;;;;;;;;;;28.07;45.92;95340.75;10478655;28;1913;-74
2022/06/29 15:31:40;;;;;;;;;;;;;;;28.07;46.77;95335.22;10485305;28;2209;-74
2022/06/29 15:42:14;;;;;;;;;;;;;;;28.43;46.50;95333.94;10471188;28;1842;-75
2022/06/29 15:47:19;;;;;;;;;;;;;;;28.35;44.61;95324.13;10471793;28;1729;-75
2022/06/29 15:52:22;;;;;;;;;;;;;;;28.37;44.86;95327.25;10473112;28;1913;-75
2022/06/29 15:57:26;;;;;;;;;;;;;;;28.45;43.95;95322.50;10461494;28;1865;-74
2022/06/29 16:02:30;;;;;;;;;;;;;;;28.13;46.78;95325.34;10473140;28;1798;-74
2022/06/29 16:07:33;;;;;;;;;;;;;;;27.35;54.28;95324.13;10475113;28;1790;-75
2022/06/29 16:12:39;;;;;;;;;;;;;;;27.43;56.10;95314.69;10467160;28;1906;-75
2022/06/29 16:17:43;;;;;;;;;;;;;;;26.59;61.16;95316.03;10480571;28;1856;-74
2022/06/29 16:22:47;;;;;;;;;;;;;;;26.06;64.75;95316.53;10480699;28;1848;-75
2022/06/29 16:27:51;;;;;;;;;;;;;;;25.85;66.52;95317.97;10476321;28;1844;-74
2022/06/29 16:32:55;;;;;;;;;;;;;;;25.44;68.63;95308.97;10469536;28;1913;-74
2022/06/29 16:37:58;;;;;;;;;;;;;;;24.72;72.90;95310.19;10477783;28;1839;-74
2022/06/29 16:43:01;;;;;;;;;;;;;;;25.38;70.54;95310.47;10470457;28;1781;-73
2022/06/29 16:48:05;;;;;;;;;;;;;;;25.54;69.36;95308.28;10475870;28;1782;-75
2022/06/29 16:53:08;;;;;;;;;;;;;;;25.40;68.88;95293.63;10481092;28;1977;-75
2022/06/29 16:58:14;;;;;;;;;;;;;;;24.84;69.55;95298.16;10478764;28;1829;-75
2022/06/29 17:03:18;;;;;;;;;;;;;;;24.69;70.54;95296.44;10474263;28;1836;-75
2022/06/29 17:08:21;;;;;;;;;;;;;;;24.76;70.41;95302.00;10474050;28;1872;-75
2022/06/29 17:13:25;;;;;;;;;;;;;;;24.91;70.00;95286.44;10480995;28;1906;-75
2022/06/29 17:18:31;;;;;;;;;;;;;;;25.12;68.13;95274.88;10470512;28;1817;-74
2022/06/29 17:23:34;;;;;;;;;;;;;;;24.98;68.16;95283.75;10465539;28;1860;-76
2022/06/29 17:28:37;;;;;;;;;;;;;;;25.08;67.88;95269.38;10468629;28;1918;-74
2022/06/29 17:33:41;;;;;;;;;;;;;;;25.01;68.33;95269.28;10473242;28;1806;-75
2022/06/29 17:38:45;;;;;;;;;;;;;;;25.19;67.32;95263.94;10490212;28;1882;-73
2022/06/29 17:43:49;;;;;;;;;;;;;;;24.98;68.61;95261.78;10474724;28;2055;-74
2022/06/29 17:48:53;;;;;;;;;;;;;;;24.70;70.09;95260.31;10472461;28;1985;-75
2022/06/29 17:53:56;;;;;;;;;;;;;;;24.32;73.03;95255.94;10470714;28;1842;-74
2022/06/29 17:59:03;;;;;;;;;;;;;;;24.17;73.95;95256.91;10468311;28;1890;-72
2022/06/29 18:04:07;;;;;;;;;;;;;;;23.89;73.50;95265.59;10466963;28;1818;-74
2022/06/29 18:09:11;;;;;;;;;;;;;;;23.50;76.57;95274.00;10470789;28;1922;-74
2022/06/29 18:14:14;;;;;;;;;;;;;;;23.32;78.42;95286.66;10472843;28;1830;-75
2022/06/29 18:19:19;;;;;;;;;;;;;;;23.11;81.19;95292.56;10468392;28;1918;-74
2022/06/29 18:24:23;;;;;;;;;;;;;;;22.99;82.99;95292.75;10472035;28;1840;-74
2022/06/29 18:29:26;;;;;;;;;;;;;;;22.90;83.72;95301.19;10474528;28;1938;-74
2022/06/29 18:34:30;;;;;;;;;;;;;;;22.74;85.17;95300.47;10472808;28;2224;-74
2022/06/29 18:39:34;;;;;;;;;;;;;;;22.59;86.81;95311.16;10469667;28;1887;-75
2022/06/29 18:44:38;;;;;;;;;;;;;;;22.44;88.97;95314.75;10463228;28;1974;-75
2022/06/29 18:49:41;;;;;;;;;;;;;;;22.34;90.39;95315.34;10465399;28;1987;-76
2022/06/29 18:54:45;;;;;;;;;;;;;;;22.22;92.04;95318.22;10477008;28;1879;-73
2022/06/29 18:59:49;;;;;;;;;;;;;;;22.00;94.54;95322.41;10474195;28;1810;-77
2022/06/29 19:04:53;;;;;;;;;;;;;;;21.78;96.32;95319.19;10470933;28;1863;-77
2022/06/29 19:09:57;;;;;;;;;;;;;;;21.67;98.03;95315.41;10475483;28;1905;-76
2022/06/29 19:15:00;;;;;;;;;;;22.60;99.90;;;21.50;99.26;95313.03;10472554;28;1922;-76
2022/06/29 19:20:05;;;;;;;;;;;;;;;21.35;100.00;95308.41;10475052;28;1777;-76
2022/06/29 19:25:11;;;;;;;;;;;;;;;21.23;100.00;95322.91;10473874;28;1986;-77
2022/06/29 19:30:14;;;;;;;;;;;;;;;21.01;100.00;95332.53;10468771;28;1914;-76
2022/06/29 19:35:18;;;;;;;;;;;;;;;20.93;100.00;95334.28;10473840;28;1789;-75
2022/06/29 19:40:22;;;;;;;;;;;;;;;20.79;100.00;95334.66;10471939;28;1907;-75
2022/06/29 19:45:25;;;;;;;;;;;;;;;20.76;100.00;95332.66;10474745;28;1815;-75
2022/06/29 19:50:29;;;;;;;;;;;;;;;20.68;100.00;95341.00;10490751;28;2514;-76
2022/06/29 19:55:37;;;;;;;;;;;;;;;20.64;100.00;95335.44;10477784;28;1790;-76
2022/06/29 20:00:59;;;;;;;;;;;21.40;99.90;;;20.51;100.00;95337.41;10479437;28;1849;-75
2022/06/29 20:06:02;;;;;;;;;;;21.50;99.90;;;20.45;100.00;95341.53;10473617;28;1947;-76
2022/06/29 20:11:06;;;;;;;;;;;21.40;99.90;;;20.39;100.00;95342.91;10482420;28;1910;-75
2022/06/29 20:16:16;;;;;;;;;;;21.30;99.90;;;20.34;100.00;95345.88;10480982;28;1891;-76
2022/06/29 20:21:19;;;;;;;;;;;21.30;99.90;;;20.19;100.00;95341.16;10480872;28;1999;-75
2022/06/29 20:26:24;;;;;;;;;;;21.10;99.90;;;20.08;100.00;95332.63;10482333;28;1863;-77
2022/06/29 20:31:27;;;;;;;;;;;21.10;99.90;;;20.07;100.00;95330.25;10477736;28;1973;-76
2022/06/29 20:36:30;;;;;;;;;;;21.00;99.90;;;20.01;100.00;95337.09;10479230;28;1883;-75
2022/06/29 20:41:36;;;;;;;;;;;21.00;99.90;;;19.87;100.00;95335.53;10470096;28;1932;-75
2022/06/29 20:46:39;;;;;;;;;;;20.90;99.90;;;19.84;100.00;95330.75;10472630;28;1840;-75
2022/06/29 20:51:42;;;;;;;;;;;20.80;99.90;;;19.70;100.00;95333.03;10476908;28;1985;-76
2022/06/29 20:56:46;;;;;;;;;;;20.70;99.90;;;19.63;100.00;95330.09;10480019;28;1749;-75
2022/06/29 21:02:01;;;;;;;;;;;20.60;99.90;;;19.59;100.00;95334.63;10476135;28;1833;-75
2022/06/29 21:07:04;;;;;;;;;;;20.60;99.90;;;19.51;100.00;95339.03;10473350;28;1864;-75
2022/06/29 21:12:07;;;;;;;;;;;20.40;99.90;;;19.36;100.00;95343.25;10471632;28;1917;-75
2022/06/29 21:17:11;;;;;;;;;;;20.40;99.90;;;19.30;100.00;95350.06;10473933;28;1869;-76
2022/06/29 21:22:13;;;;;;;;;;;20.40;99.90;;;19.22;100.00;95364.56;10482303;28;1866;-75
2022/06/29 21:27:17;;;;;;;;;;;20.20;99.90;;;19.15;100.00;95356.16;10478297;28;1785;-74
2022/06/29 21:32:20;;;;;;;;;;;20.20;99.90;;;19.07;100.00;95366.00;10478746;28;1990;-75
2022/06/29 21:37:23;;;;;;;;;;;20.20;99.90;;;19.01;100.00;95364.63;10477786;28;1835;-76
2022/06/29 21:42:26;;;;;;;;;;;20.10;99.90;;;18.96;100.00;95366.78;10473602;28;1791;-75
2022/06/29 21:47:28;;;;;;;;;;;20.00;99.90;;;18.94;100.00;95358.16;10474573;28;1848;-75
2022/06/29 21:52:31;;;;;;;;;;;20.00;99.90;;;18.94;100.00;95369.03;10471257;28;1918;-75
2022/06/29 21:57:35;;;;;;;;;;;19.90;99.90;;;18.85;100.00;95369.94;10473531;28;1920;-75
2022/06/29 22:02:38;;;;;;;;;;;19.90;99.90;;;18.78;100.00;95371.63;10491763;28;1971;-76
2022/06/29 22:07:41;;;;;;;;;;;19.70;99.90;;;18.70;100.00;95376.00;10496969;28;1876;-75
2022/06/29 22:12:44;;;;;;;;;;;19.70;99.90;;;18.67;100.00;95387.56;10468547;28;1981;-76
2022/06/29 22:17:49;;;;;;;;;;;19.70;99.90;;;18.65;100.00;95384.38;10484648;28;1787;-76
2022/06/29 22:22:52;;;;;;;;;;;19.70;99.90;;;18.59;100.00;95388.41;10490362;28;1911;-77
2022/06/29 22:27:55;;;;;;;;;;;19.60;99.90;;;18.59;100.00;95400.09;10512180;28;1503;-76
2022/06/29 22:32:59;;;;;;;;;;;19.60;99.90;;;18.55;100.00;95396.44;10515417;28;1973;-76
2022/06/29 22:38:02;;;;;;;;;;;19.60;99.90;;;18.49;100.00;95397.78;10496770;28;1831;-77
2022/06/29 22:43:05;;;;;;;;;;;19.50;99.90;;;18.46;100.00;95394.94;10469327;28;1878;-76
2022/06/29 22:48:08;;;;;;;;;;;19.50;99.90;;;18.43;100.00;95398.31;10471280;28;1846;-76
2022/06/29 22:53:11;;;;;;;;;;;19.40;99.90;;;18.37;100.00;95395.78;10478162;28;2410;-76
2022/06/29 22:58:16;;;;;;;;;;;19.30;99.90;;;18.37;100.00;95393.06;10471520;28;1778;-77
2022/06/29 23:03:20;;;;;;;;;;;19.30;99.90;;;18.36;100.00;95388.75;10470054;28;1877;-75
2022/06/29 23:08:23;;;;;;;;;;;19.40;99.90;;;18.37;100.00;95384.91;10470850;28;1721;-76
2022/06/29 23:13:27;;;;;;;;;;;19.30;99.90;;;18.30;100.00;95376.47;10474795;28;1918;-74
2022/06/29 23:18:29;;;;;;;;;;;19.30;99.90;;;18.23;100.00;95380.84;10465461;28;1873;-76
2022/06/29 23:23:33;;;;;;;;;;;19.20;99.90;;;18.13;100.00;95390.19;10473310;28;1919;-76
2022/06/29 23:28:35;;;;;;;;;;;19.20;99.90;;;18.06;100.00;95379.84;10468244;28;1858;-76
2022/06/29 23:33:38;;;;;;;;;;;19.00;99.90;;;18.01;100.00;95387.44;10471544;28;2213;-75
2022/06/29 23:38:43;;;;;;;;;;;19.00;99.90;;;17.98;100.00;95377.19;10475221;28;1880;-76
2022/06/29 23:43:47;;;;;;;;;;;19.00;99.90;;;17.92;100.00;95373.88;10461479;28;2216;-76
2022/06/29 23:48:50;;;;;;;;;;;18.90;99.90;;;17.88;100.00;95375.66;10465181;28;2184;-76
2022/06/29 23:53:53;;;;;;;;;;;18.80;99.90;;;17.79;100.00;95367.53;10472894;28;1914;-76
2022/06/29 23:58:56;;;;;;;;;;;18.70;99.90;;;17.77;100.00;95367.09;10471969;28;1899;-75
